Gilbues, Brazil
Current Conditions -  °F | °C
As of 9:00 PM on Thursday 27 Nov 2014 (Local Time) from SBPJ Reporting Station
Few Clouds Few Clouds  
Wind Chill: 79°   Ceiling: Unl
Heat Index: 82°   Visibility: 6mi
Dew Point: 72°   Wind: 3mph
Humidity: 78%   Direction: 240°WSW
Pressure: 29.88"   Gusts: NA
Location:  9.83°S, 45.34°W
Report Text: SBPJ 280000Z 24003KT 9999 FEW025 26/22 Q1012
Loading
Personal Weather Stations






























Interactive Weather Map New forecast layout! Learn more

10-Day Weather Forecast

Advertisements
Track Severe Weather on mobile